Time;durP1;ratioP1;P1;durP2;ratioP2;P2;SDS_P1;SDS_P2;PMS_P1;PMS_P2;Temp;Humidity;BMP_temperature;BMP_pressure;BME280_temperature;BME280_humidity;BME280_pressure;Samples;Min_cycle;Max_cycle;Signal;HPM_P1;HPM_P2
2023/04/18 00:00:19;;;;;;;13.40;7.93;;;10.00;99.90;;;;;;5037556;28;20033;-52
2023/04/18 00:02:45;;;;;;;14.13;7.80;;;10.20;99.90;;;;;;5037070;28;20131;-50
2023/04/18 00:05:16;;;;;;;16.38;8.45;;;10.30;99.90;;;;;;5032371;28;20086;-52
2023/04/18 00:07:42;;;;;;;13.27;8.00;;;10.20;99.90;;;;;;5035100;28;20057;-50
2023/04/18 00:10:08;;;;;;;12.45;7.78;;;9.90;99.90;;;;;;5028034;28;20480;-49
2023/04/18 00:12:35;;;;;;;11.68;8.25;;;9.80;99.90;;;;;;5033194;28;20120;-51
2023/04/18 00:15:03;;;;;;;12.48;7.93;;;9.80;99.90;;;;;;5028412;28;20037;-52
2023/04/18 00:17:30;;;;;;;12.73;7.55;;;9.70;99.90;;;;;;5037126;28;20516;-52
2023/04/18 00:19:57;;;;;;;13.35;8.35;;;9.70;99.90;;;;;;5027862;28;20596;-50
2023/04/18 00:22:23;;;;;;;13.02;7.72;;;9.60;99.90;;;;;;5026853;28;20038;-50
2023/04/18 00:24:50;;;;;;;14.02;7.97;;;9.60;99.90;;;;;;5036465;28;20112;-50
2023/04/18 00:27:17;;;;;;;12.77;8.35;;;9.50;99.90;;;;;;5036639;28;20650;-49
2023/04/18 00:29:43;;;;;;;11.23;7.85;;;9.50;99.90;;;;;;5026254;28;20426;-47
2023/04/18 00:32:09;;;;;;;12.90;7.85;;;9.40;99.90;;;;;;5028902;28;20041;-51
2023/04/18 00:34:34;;;;;;;12.35;8.13;;;9.50;99.90;;;;;;5029346;28;20044;-51
2023/04/18 00:37:00;;;;;;;13.45;8.50;;;9.40;99.90;;;;;;5030346;28;20037;-48
2023/04/18 00:39:25;;;;;;;12.88;8.57;;;9.40;99.90;;;;;;5033551;28;20044;-50
2023/04/18 00:41:51;;;;;;;14.23;8.70;;;9.40;99.90;;;;;;5030904;28;20100;-50
2023/04/18 00:44:16;;;;;;;11.52;8.52;;;9.40;99.90;;;;;;5025138;28;20116;-51
2023/04/18 00:46:42;;;;;;;10.77;8.02;;;9.40;99.90;;;;;;5034373;28;20060;-47
2023/04/18 00:49:09;;;;;;;13.07;8.27;;;9.30;99.90;;;;;;5027684;28;20038;-50
2023/04/18 00:51:35;;;;;;;15.60;8.85;;;9.20;99.90;;;;;;5030141;28;20037;-47
2023/04/18 00:54:02;;;;;;;13.88;9.02;;;9.30;99.90;;;;;;5030964;28;20044;-47
2023/04/18 00:56:28;;;;;;;13.88;8.80;;;9.10;99.90;;;;;;5029480;28;20080;-49
2023/04/18 00:58:55;;;;;;;17.10;8.60;;;9.20;99.90;;;;;;5032730;28;20538;-50
2023/04/18 01:01:21;;;;;;;14.05;8.68;;;9.00;99.90;;;;;;5037617;28;20088;-49
2023/04/18 01:03:46;;;;;;;11.75;8.43;;;9.00;99.90;;;;;;5030873;28;20572;-50
2023/04/18 01:06:12;;;;;;;14.68;8.98;;;9.10;99.90;;;;;;5033471;28;20781;-52
2023/04/18 01:08:38;;;;;;;12.43;9.00;;;9.10;99.90;;;;;;5033558;28;20408;-50
2023/04/18 01:11:03;;;;;;;14.10;8.73;;;9.00;99.90;;;;;;5029498;28;20153;-48
2023/04/18 01:13:29;;;;;;;12.52;8.90;;;9.00;99.90;;;;;;5033196;28;20044;-50
2023/04/18 01:15:54;;;;;;;13.75;8.80;;;9.10;99.90;;;;;;5029880;28;20041;-48
2023/04/18 01:18:21;;;;;;;10.90;8.65;;;8.90;99.90;;;;;;5031781;28;20072;-51
2023/04/18 01:20:51;;;;;;;12.95;8.73;;;8.80;99.90;;;;;;5036738;28;20132;-48
2023/04/18 01:23:18;;;;;;;12.20;8.60;;;8.80;99.90;;;;;;5032193;28;20069;-48
2023/04/18 01:25:45;;;;;;;13.35;9.02;;;8.70;99.90;;;;;;5031686;28;20127;-49
2023/04/18 01:28:13;;;;;;;10.80;8.60;;;8.70;99.90;;;;;;5027961;28;20049;-51
2023/04/18 01:30:39;;;;;;;11.60;7.70;;;8.70;99.90;;;;;;5032618;28;20558;-50
2023/04/18 01:33:05;;;;;;;11.95;8.35;;;8.60;99.90;;;;;;5032702;28;20114;-52
2023/04/18 01:35:32;;;;;;;11.25;8.68;;;8.60;99.90;;;;;;5034233;28;20041;-48
2023/04/18 01:37:58;;;;;;;14.32;9.50;;;8.50;99.90;;;;;;5032881;28;20484;-50
2023/04/18 01:40:24;;;;;;;14.27;8.38;;;8.50;99.90;;;;;;5034933;28;20033;-51
2023/04/18 01:42:50;;;;;;;14.13;9.25;;;8.60;99.90;;;;;;5034928;28;20030;-48
2023/04/18 01:45:17;;;;;;;14.90;9.15;;;8.50;99.90;;;;;;5030045;28;20050;-51
2023/04/18 01:47:43;;;;;;;14.35;8.40;;;8.60;99.90;;;;;;5031975;28;20033;-48
2023/04/18 01:50:09;;;;;;;18.73;8.85;;;8.50;99.90;;;;;;5032003;28;20455;-47
2023/04/18 01:52:34;;;;;;;12.10;8.35;;;8.40;99.90;;;;;;5033064;28;20912;-48
2023/04/18 01:55:03;;;;;;;10.85;8.52;;;8.50;99.90;;;;;;5033398;28;20033;-50
2023/04/18 01:57:29;;;;;;;11.60;8.60;;;8.40;99.90;;;;;;5033394;28;20029;-48
2023/04/18 01:59:55;;;;;;;12.82;9.00;;;8.40;99.90;;;;;;5028439;28;20029;-47
2023/04/18 02:02:20;;;;;;;12.95;9.07;;;8.20;99.90;;;;;;5038097;28;20361;-48
2023/04/18 02:04:46;;;;;;;10.98;7.70;;;8.20;99.90;;;;;;5034789;28;20037;-51
2023/04/18 02:07:12;;;;;;;10.73;8.23;;;8.20;99.90;;;;;;5035964;28;20121;-48
2023/04/18 02:09:37;;;;;;;12.38;8.90;;;8.10;99.90;;;;;;5030617;28;20665;-50
2023/04/18 02:12:03;;;;;;;12.13;8.68;;;8.20;99.90;;;;;;5038451;28;20029;-48
2023/04/18 02:14:30;;;;;;;12.05;8.15;;;8.20;99.90;;;;;;5047154;28;20766;-46
2023/04/18 02:16:57;;;;;;;13.68;8.57;;;8.10;99.90;;;;;;5034323;28;20528;-50
2023/04/18 02:19:23;;;;;;;12.15;8.02;;;8.00;99.90;;;;;;5029790;28;20479;-47
2023/04/18 02:21:49;;;;;;;10.55;8.32;;;7.90;99.90;;;;;;5036360;28;20037;-48
2023/04/18 02:24:15;;;;;;;12.98;8.68;;;8.00;99.90;;;;;;5038692;28;20029;-48
2023/04/18 02:26:40;;;;;;;10.18;7.95;;;7.90;99.90;;;;;;5035315;28;20072;-49
2023/04/18 02:29:06;;;;;;;11.32;8.23;;;8.00;99.90;;;;;;5039504;28;20044;-51
2023/04/18 02:31:32;;;;;;;10.43;7.63;;;8.00;99.90;;;;;;5035223;28;20076;-51
2023/04/18 02:33:57;;;;;;;12.85;7.65;;;7.80;99.90;;;;;;5040940;28;20098;-48
2023/04/18 02:36:26;;;;;;;10.57;7.65;;;8.00;99.90;;;;;;5041058;28;20037;-48
2023/04/18 02:38:53;;;;;;;10.25;7.80;;;7.90;99.90;;;;;;5032017;28;20052;-50
2023/04/18 02:41:18;;;;;;;11.27;8.00;;;7.70;99.90;;;;;;5036563;28;20033;-49
2023/04/18 02:43:44;;;;;;;12.35;8.32;;;7.70;99.90;;;;;;5035985;28;20043;-48
2023/04/18 02:46:10;;;;;;;9.13;7.68;;;7.80;99.90;;;;;;5032832;28;20052;-51
2023/04/18 02:48:36;;;;;;;9.75;7.72;;;7.90;99.90;;;;;;5039140;28;20037;-48
2023/04/18 02:51:06;;;;;;;9.18;7.40;;;8.00;99.90;;;;;;5034104;28;20098;-49
2023/04/18 02:53:32;;;;;;;10.77;8.00;;;7.80;99.90;;;;;;5032157;28;20388;-50
2023/04/18 02:55:58;;;;;;;12.38;7.30;;;7.90;99.90;;;;;;5039426;28;20491;-49
2023/04/18 02:58:23;;;;;;;9.90;7.28;;;7.80;99.90;;;;;;5031367;28;20037;-51
2023/04/18 03:00:52;;;;;;;10.68;7.63;;;7.70;99.90;;;;;;5030944;28;20033;-51
2023/04/18 03:03:17;;;;;;;10.43;7.80;;;7.60;99.90;;;;;;5032272;28;20667;-51
2023/04/18 03:05:43;;;;;;;10.05;7.47;;;7.80;99.90;;;;;;5032908;28;20068;-50
2023/04/18 03:08:08;;;;;;;10.80;7.70;;;7.60;99.90;;;;;;5027062;28;20021;-47
2023/04/18 03:10:34;;;;;;;9.23;7.32;;;7.70;99.90;;;;;;5033706;28;20108;-48
2023/04/18 03:13:00;;;;;;;10.48;7.72;;;7.70;99.90;;;;;;5031234;28;20358;-50
2023/04/18 03:15:26;;;;;;;10.10;7.40;;;7.60;99.90;;;;;;5028636;28;20377;-49
2023/04/18 03:17:52;;;;;;;11.40;7.50;;;7.70;99.90;;;;;;5037441;28;20445;-52
2023/04/18 03:20:18;;;;;;;11.73;7.88;;;7.70;99.90;;;;;;5032479;28;20040;-47
2023/04/18 03:22:43;;;;;;;13.18;7.35;;;7.70;99.90;;;;;;5036276;28;20037;-51
2023/04/18 03:25:09;;;;;;;11.68;7.55;;;7.50;99.90;;;;;;5036459;28;20025;-50
2023/04/18 03:27:35;;;;;;;10.70;7.03;;;7.60;99.90;;;;;;5037284;28;20037;-50
2023/04/18 03:30:01;;;;;;;11.93;7.53;;;7.80;99.90;;;;;;5033759;28;20385;-51
2023/04/18 03:32:27;;;;;;;9.20;7.10;;;7.80;99.90;;;;;;5039235;28;20037;-49
2023/04/18 03:34:52;;;;;;;10.35;7.53;;;7.60;99.90;;;;;;5029661;28;20669;-49
2023/04/18 03:37:18;;;;;;;9.73;7.50;;;7.50;99.90;;;;;;5037910;28;20033;-52
2023/04/18 03:39:43;;;;;;;9.05;6.88;;;7.50;99.90;;;;;;5032469;28;20037;-49
2023/04/18 03:42:09;;;;;;;12.73;7.60;;;7.30;99.90;;;;;;5028560;28;20030;-50
2023/04/18 03:44:34;;;;;;;11.27;7.45;;;7.40;99.90;;;;;;5032568;28;20045;-48
2023/04/18 03:47:00;;;;;;;11.23;7.78;;;7.30;99.90;;;;;;5030410;28;20064;-47
2023/04/18 03:49:25;;;;;;;11.90;7.75;;;7.40;99.90;;;;;;5034597;28;20856;-49
2023/04/18 03:51:51;;;;;;;10.00;7.75;;;7.50;99.90;;;;;;5037386;28;20038;-49
2023/04/18 03:54:17;;;;;;;10.20;7.43;;;7.40;99.90;;;;;;5028880;28;20053;-49
2023/04/18 03:56:43;;;;;;;11.48;7.53;;;7.50;99.90;;;;;;5030667;28;20710;-49
2023/04/18 03:59:09;;;;;;;9.68;7.22;;;7.40;99.90;;;;;;5031768;28;20038;-49
2023/04/18 04:01:35;;;;;;;10.13;7.75;;;7.50;99.90;;;;;;5031520;28;20080;-48
2023/04/18 04:04:01;;;;;;;10.27;7.90;;;7.60;99.90;;;;;;5030522;28;20072;-50
2023/04/18 04:06:27;;;;;;;12.63;7.30;;;7.50;99.90;;;;;;5038898;28;20037;-49
2023/04/18 04:08:52;;;;;;;11.05;7.50;;;7.30;99.90;;;;;;5035325;28;20389;-48
2023/04/18 04:11:18;;;;;;;10.82;7.72;;;7.30;99.90;;;;;;5032226;28;20463;-50
2023/04/18 04:13:43;;;;;;;10.63;7.90;;;7.30;99.90;;;;;;5032722;28;20635;-49
2023/04/18 04:16:09;;;;;;;9.75;7.53;;;7.30;99.90;;;;;;5026649;28;20369;-52
2023/04/18 04:18:35;;;;;;;13.40;8.60;;;7.40;99.90;;;;;;5031229;28;20404;-51
2023/04/18 04:21:01;;;;;;;13.60;8.35;;;7.40;99.90;;;;;;5030599;28;20045;-51
2023/04/18 04:23:27;;;;;;;13.45;8.02;;;7.40;99.90;;;;;;5033829;28;20045;-52
2023/04/18 04:25:54;;;;;;;12.07;8.30;;;7.50;99.90;;;;;;5035678;28;20033;-52
2023/04/18 04:28:21;;;;;;;10.43;7.72;;;7.40;99.90;;;;;;5028027;28;20041;-51
2023/04/18 04:30:49;;;;;;;11.77;8.50;;;7.20;99.90;;;;;;5031244;28;20094;-50
2023/04/18 04:33:18;;;;;;;10.60;8.43;;;7.30;99.90;;;;;;5032863;28;20597;-50
2023/04/18 04:35:48;;;;;;;13.93;8.50;;;7.40;99.90;;;;;;5026334;28;20511;-48
2023/04/18 04:38:14;;;;;;;12.25;8.48;;;7.20;99.90;;;;;;5032763;28;20034;-49
2023/04/18 04:40:40;;;;;;;12.35;8.48;;;7.20;99.90;;;;;;5035478;28;20043;-51
2023/04/18 04:43:06;;;;;;;15.15;8.73;;;7.30;99.90;;;;;;5030156;28;20220;-51
2023/04/18 04:45:32;;;;;;;13.40;9.43;;;7.50;99.90;;;;;;5036618;28;20549;-51
2023/04/18 04:47:58;;;;;;;12.35;8.60;;;7.30;99.90;;;;;;5025793;28;20044;-51
2023/04/18 04:50:24;;;;;;;15.18;9.13;;;7.30;99.90;;;;;;5035973;28;20045;-48
2023/04/18 04:52:49;;;;;;;14.15;9.48;;;7.20;99.90;;;;;;5028309;28;20835;-51
2023/04/18 04:55:16;;;;;;;13.05;9.30;;;7.20;99.90;;;;;;5033078;28;20132;-50
2023/04/18 04:57:43;;;;;;;13.70;9.70;;;7.10;99.90;;;;;;5033445;28;20045;-51
2023/04/18 05:00:10;;;;;;;14.70;9.32;;;7.30;99.90;;;;;;5025088;28;20102;-48
2023/04/18 05:02:35;;;;;;;14.75;9.63;;;7.20;99.90;;;;;;5032743;28;20029;-49
2023/04/18 05:05:01;;;;;;;12.98;9.05;;;7.20;99.90;;;;;;5030916;28;20460;-47
2023/04/18 05:07:27;;;;;;;12.63;9.60;;;7.10;99.90;;;;;;5044596;28;20033;-47
2023/04/18 05:09:52;;;;;;;12.93;9.32;;;7.10;99.90;;;;;;5042287;28;20028;-49
2023/04/18 05:12:18;;;;;;;12.93;9.85;;;7.30;99.90;;;;;;5031585;28;20075;-48
2023/04/18 05:14:43;;;;;;;12.38;9.25;;;7.40;99.90;;;;;;5040365;28;20024;-50
2023/04/18 05:17:09;;;;;;;13.55;10.30;;;7.60;99.90;;;;;;5035090;28;20029;-50
2023/04/18 05:19:35;;;;;;;14.75;10.57;;;7.50;99.90;;;;;;5032241;28;20045;-52
2023/04/18 05:22:00;;;;;;;16.35;11.07;;;7.60;99.90;;;;;;5035303;28;20124;-47
2023/04/18 05:24:26;;;;;;;16.33;11.55;;;7.60;99.90;;;;;;5038379;28;20041;-49
2023/04/18 05:26:51;;;;;;;14.27;10.60;;;7.60;99.90;;;;;;5044894;28;20534;-50
2023/04/18 05:29:17;;;;;;;14.02;10.90;;;7.80;99.90;;;;;;5035117;28;20726;-51
2023/04/18 05:31:43;;;;;;;14.63;10.75;;;7.80;99.90;;;;;;5040711;28;20443;-49
2023/04/18 05:34:08;;;;;;;13.65;9.82;;;7.90;99.90;;;;;;5036321;28;20401;-49
2023/04/18 05:36:34;;;;;;;12.90;10.15;;;7.90;99.90;;;;;;5033405;28;20033;-48
2023/04/18 05:38:59;;;;;;;16.25;11.23;;;7.90;99.90;;;;;;5031693;28;20033;-48
2023/04/18 05:41:25;;;;;;;16.83;11.98;;;7.80;99.90;;;;;;5036041;28;20111;-51
2023/04/18 05:43:50;;;;;;;13.05;10.32;;;7.90;99.90;;;;;;5044795;28;20024;-51
2023/04/18 05:46:16;;;;;;;13.95;10.75;;;7.90;99.90;;;;;;5027361;28;20044;-52
2023/04/18 05:48:41;;;;;;;13.88;10.32;;;8.00;99.90;;;;;;5042261;28;20115;-50
2023/04/18 05:51:07;;;;;;;116.05;73.75;;;8.10;99.90;;;;;;5040683;28;20025;-48
2023/04/18 05:53:33;;;;;;;59.22;41.38;;;8.20;99.90;;;;;;5037389;28;20033;-50
2023/04/18 05:55:58;;;;;;;13.45;11.00;;;8.30;99.90;;;;;;5039619;28;20040;-49
2023/04/18 05:58:24;;;;;;;17.35;12.23;;;8.40;99.90;;;;;;5036753;28;20109;-49
2023/04/18 06:00:51;;;;;;;14.95;11.55;;;8.40;99.90;;;;;;5036392;28;20033;-49
2023/04/18 06:03:16;;;;;;;18.58;12.93;;;8.40;99.90;;;;;;5039389;28;20040;-52
2023/04/18 06:05:42;;;;;;;16.02;12.18;;;8.50;99.90;;;;;;5036515;28;20602;-49
2023/04/18 06:08:08;;;;;;;19.92;12.48;;;8.50;99.90;;;;;;5036515;28;20443;-50
2023/04/18 06:10:34;;;;;;;17.45;12.10;;;8.60;99.90;;;;;;5033641;28;20145;-49
2023/04/18 06:13:00;;;;;;;17.13;13.45;;;8.70;99.90;;;;;;5042530;28;20435;-49
2023/04/18 06:15:25;;;;;;;20.55;12.57;;;8.80;99.90;;;;;;5034327;28;20029;-51
2023/04/18 06:17:51;;;;;;;18.50;12.68;;;9.00;99.90;;;;;;5033253;28;20135;-48
2023/04/18 06:20:17;;;;;;;16.80;12.23;;;9.10;99.90;;;;;;5031357;28;20045;-50
2023/04/18 06:22:42;;;;;;;16.73;11.40;;;9.20;99.90;;;;;;5032290;28;20056;-49
2023/04/18 06:25:08;;;;;;;14.15;10.77;;;9.40;99.90;;;;;;5035307;28;20607;-49
2023/04/18 06:27:35;;;;;;;17.40;12.00;;;9.40;99.90;;;;;;5032625;28;20128;-49
2023/04/18 06:30:01;;;;;;;14.95;10.95;;;9.40;99.90;;;;;;5039162;28;20049;-48
2023/04/18 06:32:26;;;;;;;13.38;10.70;;;9.60;99.90;;;;;;5032197;28;20036;-51
2023/04/18 06:34:52;;;;;;;12.95;10.63;;;9.50;99.90;;;;;;5038189;28;20025;-51
2023/04/18 06:37:17;;;;;;;15.15;10.88;;;9.60;99.90;;;;;;5037435;28;20060;-51
2023/04/18 06:39:43;;;;;;;13.25;10.63;;;9.60;99.90;;;;;;5032353;28;20037;-48
2023/04/18 06:42:09;;;;;;;15.30;11.07;;;9.60;99.90;;;;;;5033132;28;20061;-51
2023/04/18 06:44:35;;;;;;;13.18;10.80;;;9.50;99.90;;;;;;5041583;28;20338;-50
2023/04/18 06:47:01;;;;;;;13.13;10.60;;;9.60;99.90;;;;;;5033243;28;20033;-52
2023/04/18 06:49:27;;;;;;;14.70;10.90;;;9.80;99.90;;;;;;5039638;28;20083;-49
2023/04/18 06:51:53;;;;;;;14.50;10.75;;;9.70;99.90;;;;;;5030442;28;20430;-50
2023/04/18 06:54:18;;;;;;;15.57;11.60;;;9.70;99.90;;;;;;5037746;28;20608;-51
2023/04/18 06:56:44;;;;;;;14.75;10.90;;;10.00;99.90;;;;;;5036011;28;20281;-49
2023/04/18 06:59:10;;;;;;;14.52;10.93;;;9.90;99.90;;;;;;5037831;28;20073;-50
2023/04/18 07:01:41;;;;;;;18.95;11.10;;;10.00;99.90;;;;;;5038440;28;20114;-51
2023/04/18 07:04:07;;;;;;;14.70;10.68;;;9.90;99.90;;;;;;5038503;28;20043;-48
2023/04/18 07:06:34;;;;;;;12.98;10.48;;;9.80;99.90;;;;;;5035315;28;20041;-50
2023/04/18 07:09:00;;;;;;;14.73;10.30;;;10.00;99.90;;;;;;5037967;28;20048;-53
2023/04/18 07:11:26;;;;;;;13.05;9.98;;;9.90;99.90;;;;;;5039061;28;20037;-49
2023/04/18 07:13:52;;;;;;;15.93;11.35;;;10.00;99.90;;;;;;5039222;28;20554;-52
2023/04/18 07:16:17;;;;;;;13.43;10.50;;;9.90;99.90;;;;;;5035729;28;20034;-48
2023/04/18 07:18:43;;;;;;;14.05;11.30;;;10.00;99.90;;;;;;5034546;28;20237;-52
2023/04/18 07:21:08;;;;;;;13.20;10.30;;;10.20;99.90;;;;;;5041633;28;20029;-49
2023/04/18 07:23:34;;;;;;;14.02;10.68;;;10.30;99.90;;;;;;5038022;28;20034;-52
2023/04/18 07:26:01;;;;;;;13.43;10.05;;;10.50;99.90;;;;;;5040149;28;20026;-51
2023/04/18 07:28:27;;;;;;;11.98;9.88;;;10.60;99.90;;;;;;5036242;28;20045;-53
2023/04/18 07:30:55;;;;;;;14.57;9.98;;;10.60;99.90;;;;;;5041150;28;20044;-51
2023/04/18 07:33:21;;;;;;;14.93;10.38;;;10.50;99.90;;;;;;5041656;28;20045;-52
2023/04/18 07:35:48;;;;;;;12.38;9.80;;;10.50;99.90;;;;;;5031466;28;20033;-48
2023/04/18 07:38:14;;;;;;;12.15;10.07;;;10.40;99.90;;;;;;5031753;28;20124;-50
2023/04/18 07:40:40;;;;;;;15.18;10.15;;;10.50;99.90;;;;;;5032491;28;20028;-51
2023/04/18 07:43:06;;;;;;;15.07;10.27;;;10.70;99.90;;;;;;5033767;28;20485;-52
2023/04/18 07:45:34;;;;;;;13.90;10.40;;;10.60;99.90;;;;;;5030466;28;20033;-50
2023/04/18 07:48:00;;;;;;;12.38;9.93;;;10.40;99.90;;;;;;5032918;28;20065;-47
2023/04/18 07:50:26;;;;;;;13.52;10.85;;;10.30;99.90;;;;;;5031009;28;20047;-48
2023/04/18 07:52:52;;;;;;;14.27;11.02;;;10.10;99.90;;;;;;5035838;28;20026;-51
2023/04/18 07:55:17;;;;;;;13.70;10.90;;;10.20;99.90;;;;;;5030392;28;20041;-50
2023/04/18 07:57:43;;;;;;;14.55;11.10;;;10.00;99.90;;;;;;5036232;28;20037;-48
2023/04/18 08:00:11;;;;;;;15.00;12.13;;;9.90;99.90;;;;;;5036441;28;20099;-51
2023/04/18 08:02:36;;;;;;;17.42;10.85;;;9.90;99.90;;;;;;5036381;28;20047;-51
2023/04/18 08:05:02;;;;;;;16.60;12.25;;;10.00;99.90;;;;;;5036890;28;20034;-52
2023/04/18 08:07:28;;;;;;;16.35;11.80;;;10.00;99.90;;;;;;5038222;28;20045;-50
2023/04/18 08:09:53;;;;;;;15.50;12.02;;;9.90;99.90;;;;;;5035011;28;20065;-48
2023/04/18 08:12:19;;;;;;;14.55;11.93;;;10.00;99.90;;;;;;5034593;28;20029;-48
2023/04/18 08:14:44;;;;;;;15.80;12.10;;;9.70;99.90;;;;;;5033517;28;20475;-50
2023/04/18 08:17:10;;;;;;;16.83;12.27;;;9.80;99.90;;;;;;5032475;28;20032;-49
2023/04/18 08:19:35;;;;;;;13.35;11.43;;;10.00;99.90;;;;;;5036294;28;20052;-51
2023/04/18 08:22:11;;;;;;;13.77;11.32;;;10.10;99.90;;;;;;5034865;28;20032;-50
2023/04/18 08:24:40;;;;;;;15.00;11.68;;;9.90;99.90;;;;;;5030675;28;20492;-52
2023/04/18 08:29:45;;;;;;;15.43;11.13;;;9.90;99.90;;;;;;5087441;27;20470;-48
2023/04/18 08:32:11;;;;;;;14.57;11.57;;;10.00;99.90;;;;;;5079463;27;20029;-52
2023/04/18 08:34:37;;;;;;;13.43;11.13;;;10.00;99.90;;;;;;5086592;27;20260;-48
2023/04/18 08:37:02;;;;;;;13.63;9.05;;;10.10;99.90;;;;;;5080475;27;20447;-51
2023/04/18 08:39:28;;;;;;;14.30;10.95;;;10.00;99.90;;;;;;5078917;27;20070;-52
2023/04/18 08:41:58;;;;;;;16.10;12.15;;;10.00;99.90;;;;;;5076045;27;20754;-49
2023/04/18 08:44:28;;;;;;;17.15;11.43;;;10.00;99.90;;;;;;5074590;27;20035;-50
2023/04/18 08:46:54;;;;;;;16.15;10.40;;;9.90;99.90;;;;;;5074688;27;20024;-49
2023/04/18 08:49:23;;;;;;;19.80;12.63;;;9.90;99.90;;;;;;5068388;27;20051;-48
2023/04/18 08:51:50;;;;;;;16.50;12.93;;;10.00;99.90;;;;;;5073139;27;20863;-51
2023/04/18 08:54:18;;;;;;;16.02;13.35;;;10.00;99.90;;;;;;5069261;28;20040;-51
2023/04/18 08:56:44;;;;;;;16.63;12.73;;;10.00;99.90;;;;;;5068858;28;20043;-57
2023/04/18 08:59:10;;;;;;;18.38;13.45;;;10.00;99.90;;;;;;5063372;27;20085;-51
2023/04/18 09:01:56;;;;;;;16.88;13.35;;;10.10;99.90;;;;;;5072239;28;20121;-53
2023/04/18 09:04:33;;;;;;;20.63;13.93;;;10.40;99.90;;;;;;5073037;27;20047;-48
2023/04/18 09:06:59;;;;;;;17.70;13.70;;;10.20;99.90;;;;;;5076972;27;20671;-48
2023/04/18 09:09:26;;;;;;;19.88;14.93;;;10.10;99.90;;;;;;5073250;27;20040;-49
2023/04/18 09:12:21;;;;;;;20.77;14.65;;;10.00;99.90;;;;;;5062029;28;20062;-51
2023/04/18 09:14:49;;;;;;;18.17;14.43;;;10.00;99.90;;;;;;5069568;28;20044;-51
2023/04/18 09:17:31;;;;;;;21.23;15.40;;;9.90;99.90;;;;;;5064948;28;20033;-49
2023/04/18 09:19:58;;;;;;;19.25;14.60;;;10.00;99.90;;;;;;5071988;28;20093;-51
2023/04/18 09:22:25;;;;;;;18.48;14.23;;;10.20;99.90;;;;;;5064206;27;20060;-50
2023/04/18 09:24:54;;;;;;;17.17;14.25;;;10.30;99.90;;;;;;5072291;28;20823;-51
2023/04/18 09:27:24;;;;;;;17.95;14.50;;;10.00;99.90;;;;;;5076700;27;20044;-50
2023/04/18 09:29:53;;;;;;;20.77;15.27;;;10.10;99.90;;;;;;5077543;28;20032;-52
2023/04/18 09:32:29;;;;;;;19.95;15.38;;;10.30;99.90;;;;;;5079678;27;20090;-49
2023/04/18 09:35:02;;;;;;;18.58;13.75;;;10.40;99.90;;;;;;5079325;27;20035;-48
2023/04/18 09:37:28;;;;;;;19.05;14.52;;;10.00;99.90;;;;;;5086521;27;20488;-51
2023/04/18 09:39:57;;;;;;;17.65;13.48;;;10.00;99.90;;;;;;5069744;27;20543;-51
2023/04/18 09:42:22;;;;;;;18.42;13.27;;;10.00;99.90;;;;;;5061694;28;20567;-51
2023/04/18 09:45:05;;;;;;;21.27;12.98;;;10.00;99.90;;;;;;5059795;28;20078;-48
2023/04/18 09:47:33;;;;;;;18.20;14.32;;;10.10;99.90;;;;;;5052948;28;20471;-50
2023/04/18 09:50:06;;;;;;;17.10;14.00;;;10.30;99.90;;;;;;5062983;28;20028;-50
2023/04/18 09:52:37;;;;;;;18.90;14.43;;;10.30;99.90;;;;;;5066538;28;20067;-49
2023/04/18 09:55:06;;;;;;;18.58;14.45;;;10.60;99.90;;;;;;5067500;28;20028;-51
2023/04/18 09:57:33;;;;;;;18.40;13.85;;;10.70;99.90;;;;;;5070221;28;20639;-52
2023/04/18 10:00:12;;;;;;;19.70;14.02;;;10.60;99.90;;;;;;5066133;28;20616;-53
2023/04/18 10:02:52;;;;;;;18.58;14.50;;;10.70;99.90;;;;;;5069870;27;20028;-50
2023/04/18 10:05:22;;;;;;;18.15;13.85;;;10.50;99.90;;;;;;5068158;28;20100;-49
2023/04/18 10:07:49;;;;;;;19.17;14.07;;;10.60;99.90;;;;;;5062720;28;20587;-48
2023/04/18 10:10:15;;;;;;;19.25;13.55;;;10.30;99.90;;;;;;5061526;28;20487;-53
2023/04/18 10:12:41;;;;;;;16.00;12.65;;;10.30;99.90;;;;;;5063629;28;20037;-47
2023/04/18 10:15:08;;;;;;;21.70;14.27;;;10.10;99.90;;;;;;5063331;28;20593;-52
2023/04/18 10:17:54;;;;;;;18.15;14.02;;;10.30;99.90;;;;;;5063045;28;20047;-51
2023/04/18 10:20:25;;;;;;;22.05;13.10;;;10.20;99.90;;;;;;5066744;28;20156;-51
2023/04/18 10:22:52;;;;;;;19.13;15.32;;;10.30;99.90;;;;;;5057442;28;20047;-52
2023/04/18 10:25:39;;;;;;;19.08;14.75;;;10.30;99.90;;;;;;5061288;28;20036;-50
2023/04/18 10:28:06;;;;;;;21.25;14.88;;;10.60;99.90;;;;;;5063516;28;20107;-49
2023/04/18 10:30:38;;;;;;;18.70;14.60;;;10.80;99.90;;;;;;5055594;28;20135;-51
2023/04/18 10:33:44;;;;;;;13.95;11.73;;;10.80;99.90;;;;;;5068410;28;20075;-50
2023/04/18 10:36:13;;;;;;;21.50;14.77;;;10.70;99.90;;;;;;5051363;28;20040;-49
2023/04/18 10:39:22;;;;;;;18.33;13.82;;;10.70;99.90;;;;;;5060326;28;20028;-50
2023/04/18 10:41:48;;;;;;;19.83;15.30;;;10.90;99.90;;;;;;5057987;28;20036;-49
2023/04/18 10:44:21;;;;;;;18.95;14.25;;;11.20;99.90;;;;;;5063883;28;20028;-51
2023/04/18 10:46:47;;;;;;;17.73;12.80;;;11.10;99.90;;;;;;5059968;28;20036;-51
2023/04/18 10:49:20;;;;;;;18.77;13.43;;;11.00;99.90;;;;;;5066274;28;20046;-48
2023/04/18 10:51:53;;;;;;;17.98;12.95;;;11.10;99.90;;;;;;5060522;28;20558;-49
2023/04/18 10:54:31;;;;;;;15.65;11.93;;;11.10;99.90;;;;;;5064404;28;20028;-50
2023/04/18 10:56:58;;;;;;;17.75;13.23;;;11.00;99.90;;;;;;5055326;28;20148;-51
2023/04/18 10:59:25;;;;;;;17.38;13.32;;;11.10;99.90;;;;;;5053997;28;20257;-49
2023/04/18 11:02:21;;;;;;;17.30;12.55;;;11.20;99.90;;;;;;5062463;28;20037;-49
2023/04/18 11:05:07;;;;;;;17.20;12.55;;;11.30;99.90;;;;;;5062947;28;20076;-48
2023/04/18 11:07:43;;;;;;;17.35;13.05;;;11.20;99.90;;;;;;5071163;27;20910;-51
2023/04/18 11:10:09;;;;;;;19.33;13.50;;;11.30;99.90;;;;;;5058482;28;20317;-52
2023/04/18 11:12:37;;;;;;;17.60;13.32;;;11.40;99.90;;;;;;5060416;28;20031;-54
2023/04/18 11:15:09;;;;;;;16.70;12.50;;;11.70;99.90;;;;;;5054464;28;20510;-49
2023/04/18 11:17:37;;;;;;;16.73;13.05;;;11.70;99.90;;;;;;5062222;28;20033;-51
2023/04/18 11:20:13;;;;;;;16.63;13.15;;;11.70;99.90;;;;;;5059817;28;20693;-51
2023/04/18 11:22:53;;;;;;;18.88;14.48;;;11.70;99.90;;;;;;5070959;27;20119;-49
2023/04/18 11:25:22;;;;;;;16.52;13.05;;;11.80;99.90;;;;;;5061372;28;20029;-50
2023/04/18 11:27:54;;;;;;;17.77;13.35;;;11.70;99.90;;;;;;5060810;28;20652;-48
2023/04/18 11:30:20;;;;;;;18.20;13.38;;;11.70;99.90;;;;;;5062089;28;20029;-49
2023/04/18 11:32:46;;;;;;;17.33;13.25;;;11.90;99.90;;;;;;5059364;28;20037;-51
2023/04/18 11:35:13;;;;;;;17.17;13.48;;;12.20;99.90;;;;;;5061425;28;20548;-49
2023/04/18 11:37:40;;;;;;;14.95;12.55;;;12.30;99.90;;;;;;5059793;28;20027;-48
2023/04/18 11:40:08;;;;;;;18.83;12.80;;;12.20;99.90;;;;;;5070474;27;20044;-52
2023/04/18 11:42:36;;;;;;;14.77;11.77;;;12.30;99.90;;;;;;5060692;27;20512;-50
2023/04/18 11:45:02;;;;;;;15.60;12.43;;;12.20;99.90;;;;;;5055134;28;20680;-51
2023/04/18 11:47:33;;;;;;;20.02;13.18;;;12.10;99.90;;;;;;5064706;28;20879;-52
2023/04/18 11:50:04;;;;;;;18.38;12.57;;;12.10;99.90;;;;;;5055836;28;20048;-52
2023/04/18 11:52:31;;;;;;;15.65;12.82;;;12.00;99.90;;;;;;5052914;28;20353;-51
2023/04/18 11:55:23;;;;;;;16.50;12.80;;;12.30;99.90;;;;;;5073197;28;20570;-49
2023/04/18 11:57:57;;;;;;;18.10;11.85;;;12.80;99.90;;;;;;5067692;28;20043;-51
2023/04/18 12:00:37;;;;;;;13.88;11.30;;;13.10;99.90;;;;;;5057355;28;20037;-51
2023/04/18 12:03:14;;;;;;;14.77;11.65;;;12.90;99.90;;;;;;5059147;28;20111;-48
2023/04/18 12:05:41;;;;;;;17.83;12.90;;;12.50;99.90;;;;;;5060387;28;20032;-49
2023/04/18 12:08:10;;;;;;;16.55;12.13;;;12.70;99.90;;;;;;5066911;28;20037;-49
2023/04/18 12:10:35;;;;;;;19.33;12.73;;;12.50;99.90;;;;;;5060311;28;20036;-49
2023/04/18 12:13:05;;;;;;;15.45;11.63;;;12.60;99.90;;;;;;5066646;27;20035;-51
2023/04/18 12:15:32;;;;;;;16.05;12.02;;;12.80;99.90;;;;;;5057209;28;20470;-48
2023/04/18 12:18:02;;;;;;;16.75;12.57;;;12.40;99.90;;;;;;5056447;28;20561;-51
2023/04/18 12:20:46;;;;;;;15.45;11.80;;;12.40;99.90;;;;;;5073869;27;20082;-51
2023/04/18 12:23:31;;;;;;;15.13;12.40;;;12.70;99.90;;;;;;5055164;28;20043;-53
2023/04/18 12:26:21;;;;;;;17.08;12.27;;;12.60;99.90;;;;;;5058693;27;20055;-52
2023/04/18 12:28:50;;;;;;;17.60;12.63;;;12.50;99.90;;;;;;5058547;28;20047;-48
2023/04/18 12:31:16;;;;;;;16.70;12.75;;;12.50;99.90;;;;;;5058476;28;20047;-50
2023/04/18 12:33:41;;;;;;;20.48;13.32;;;12.70;99.90;;;;;;5054710;28;20705;-53
2023/04/18 12:36:07;;;;;;;16.98;13.35;;;12.60;99.90;;;;;;5058060;28;20036;-52
2023/04/18 12:38:34;;;;;;;16.95;13.63;;;12.60;99.90;;;;;;5061243;28;20341;-52
2023/04/18 12:41:00;;;;;;;19.17;14.18;;;12.80;99.90;;;;;;5058345;28;20055;-53
2023/04/18 12:43:25;;;;;;;19.48;15.07;;;12.80;99.90;;;;;;5061911;28;20032;-50